Time;durP1;ratioP1;P1;durP2;ratioP2;P2;SDS_P1;SDS_P2;PMS_P1;PMS_P2;Temp;Humidity;BMP_temperature;BMP_pressure;BME280_temperature;BME280_humidity;BME280_pressure;Samples;Min_cycle;Max_cycle;Signal;HPM_P1;HPM_P2
2023/05/14 00:02:21;;;;;;;14.95;9.55;;;;;;;8.05;100.00;99537.91;5064380;28;20050;-61
2023/05/14 00:04:49;;;;;;;13.38;9.82;;;;;;;8.05;100.00;99532.56;5061607;28;20068;-62
2023/05/14 00:07:16;;;;;;;13.43;10.32;;;;;;;8.03;100.00;99524.75;5064233;28;20149;-61
2023/05/14 00:09:43;;;;;;;13.98;9.93;;;;;;;7.93;100.00;99517.22;5058931;28;20167;-62
2023/05/14 00:12:10;;;;;;;11.48;9.57;;;;;;;7.82;100.00;99522.47;5061656;28;20033;-61
2023/05/14 00:14:37;;;;;;;16.20;9.90;;;;;;;7.81;100.00;99512.81;5057599;28;20053;-61
2023/05/14 00:17:05;;;;;;;12.20;9.45;;;;;;;7.76;100.00;99518.81;5060056;28;20117;-61
2023/05/14 00:19:32;;;;;;;14.85;9.77;;;;;;;7.70;100.00;99520.50;5061091;28;20560;-62
2023/05/14 00:22:01;;;;;;;11.57;9.07;;;;;;;7.54;100.00;99521.84;5061607;28;20073;-61
2023/05/14 00:24:28;;;;;;;13.77;8.82;;;;;;;7.49;100.00;99527.00;5060528;28;20036;-62
2023/05/14 00:26:55;;;;;;;11.70;9.40;;;;;;;7.48;100.00;99524.56;5057217;28;20397;-62
2023/05/14 00:29:22;;;;;;;11.38;8.85;;;;;;;7.42;100.00;99525.41;5056113;28;20399;-61
2023/05/14 00:31:49;;;;;;;15.05;10.52;;;;;;;7.42;100.00;99520.91;5060202;28;20131;-62
2023/05/14 00:34:16;;;;;;;15.98;11.18;;;;;;;7.67;100.00;99518.28;5060639;28;20044;-62
2023/05/14 00:36:43;;;;;;;16.83;10.88;;;;;;;7.58;100.00;99522.22;5058196;28;20144;-61
2023/05/14 00:39:11;;;;;;;15.73;11.25;;;;;;;7.53;100.00;99522.88;5066444;28;20048;-62
2023/05/14 00:41:38;;;;;;;13.50;9.70;;;;;;;7.36;100.00;99511.06;5062792;28;20135;-61
2023/05/14 00:44:05;;;;;;;16.42;10.45;;;;;;;7.38;100.00;99511.69;5063710;28;20528;-62
2023/05/14 00:46:32;;;;;;;15.60;9.75;;;;;;;7.39;100.00;99513.34;5057018;28;20063;-62
2023/05/14 00:48:59;;;;;;;12.90;9.80;;;;;;;7.34;100.00;99513.16;5068467;28;20051;-61
2023/05/14 00:51:26;;;;;;;12.68;9.93;;;;;;;7.36;100.00;99516.41;5061266;28;20040;-62
2023/05/14 00:53:53;;;;;;;12.68;10.52;;;;;;;7.45;100.00;99515.13;5059946;28;20222;-61
2023/05/14 00:56:22;;;;;;;16.35;11.27;;;;;;;7.37;100.00;99512.72;5064181;28;20044;-61
2023/05/14 00:58:49;;;;;;;13.73;10.15;;;;;;;7.24;100.00;99515.44;5056910;28;20456;-62
2023/05/14 01:01:16;;;;;;;15.70;11.93;;;;;;;7.16;100.00;99518.38;5062409;28;20115;-61
2023/05/14 01:03:43;;;;;;;20.48;11.70;;;;;;;7.18;100.00;99513.66;5054158;28;20041;-62
2023/05/14 01:06:14;;;;;;;16.30;12.82;;;;;;;7.22;100.00;99517.53;5059398;28;20051;-61
2023/05/14 01:08:46;;;;;;;19.23;14.10;;;;;;;7.37;100.00;99507.38;5056457;28;20045;-61
2023/05/14 01:11:17;;;;;;;18.75;15.05;;;;;;;7.37;100.00;99506.59;5058139;28;20427;-62
2023/05/14 01:13:49;;;;;;;24.23;15.25;;;;;;;7.42;100.00;99509.41;5056551;28;20134;-62
2023/05/14 01:16:17;;;;;;;19.98;14.20;;;;;;;7.37;100.00;99515.41;5063843;28;20402;-61
2023/05/14 01:18:44;;;;;;;13.20;10.82;;;;;;;7.27;100.00;99507.03;5063383;28;20069;-62
2023/05/14 01:21:34;;;;;;;15.52;12.07;;;;;;;7.07;100.00;99502.63;5061556;28;20142;-61
2023/05/14 01:24:01;;;;;;;17.55;13.77;;;;;;;7.06;100.00;99497.50;5062382;28;20068;-61
2023/05/14 01:26:29;;;;;;;20.15;14.18;;;;;;;7.10;100.00;99496.88;5056903;28;20574;-61
2023/05/14 01:28:56;;;;;;;19.02;13.75;;;;;;;7.12;100.00;99497.47;5059742;28;20040;-62
2023/05/14 01:31:26;;;;;;;18.40;12.40;;;;;;;7.07;100.00;99493.81;5062903;28;20048;-61
2023/05/14 01:33:53;;;;;;;18.38;11.60;;;;;;;7.12;100.00;99494.81;5054003;28;20049;-63
2023/05/14 01:36:20;;;;;;;19.05;14.48;;;;;;;7.34;100.00;99483.84;5057883;28;20076;-63
2023/05/14 01:38:50;;;;;;;23.00;16.88;;;;;;;7.06;100.00;99484.19;5065517;28;20056;-63
2023/05/14 01:41:17;;;;;;;22.92;15.20;;;;;;;7.05;100.00;99483.38;5070843;28;20065;-63
2023/05/14 01:43:44;;;;;;;23.25;16.38;;;;;;;7.00;100.00;99491.19;5055116;28;20449;-62
2023/05/14 01:46:11;;;;;;;22.25;16.00;;;;;;;7.07;100.00;99489.31;5061029;28;20049;-62
2023/05/14 01:48:40;;;;;;;22.25;16.00;;;;;;;6.98;100.00;99487.91;5060534;28;20063;-63
2023/05/14 01:51:07;;;;;;;25.02;17.17;;;;;;;7.15;100.00;99492.75;5055955;28;20052;-62
2023/05/14 01:53:34;;;;;;;22.58;16.65;;;;;;;7.09;100.00;99492.56;5059940;28;20045;-62
2023/05/14 01:56:03;;;;;;;26.35;16.85;;;;;;;7.20;100.00;99484.94;5060754;28;20052;-62
2023/05/14 01:58:30;;;;;;;22.73;16.52;;;;;;;7.25;100.00;99487.78;5054006;28;20068;-62
2023/05/14 02:00:57;;;;;;;23.08;14.95;;;;;;;7.15;100.00;99487.44;5063763;28;20044;-62
2023/05/14 02:03:24;;;;;;;17.35;13.65;;;;;;;6.93;100.00;99490.41;5058621;28;20068;-62
2023/05/14 02:05:52;;;;;;;21.70;16.40;;;;;;;6.86;100.00;99486.94;5061863;28;20532;-62
2023/05/14 02:08:20;;;;;;;24.75;16.77;;;;;;;6.86;100.00;99485.13;5057441;28;20465;-62
2023/05/14 02:10:47;;;;;;;24.23;18.20;;;;;;;6.88;100.00;99484.88;5071968;28;20074;-62
2023/05/14 02:13:15;;;;;;;26.75;18.92;;;;;;;6.91;100.00;99477.31;5059962;28;20392;-62
2023/05/14 02:15:42;;;;;;;32.15;21.15;;;;;;;6.99;100.00;99473.56;5053081;28;20131;-62
2023/05/14 02:18:09;;;;;;;31.88;22.20;;;;;;;7.09;100.00;99468.59;5058164;28;20136;-62
2023/05/14 02:20:36;;;;;;;32.30;21.67;;;;;;;7.16;100.00;99470.38;5057796;28;20045;-62
2023/05/14 02:23:03;;;;;;;33.47;19.80;;;;;;;7.03;100.00;99469.44;5060441;28;20079;-62
2023/05/14 02:25:30;;;;;;;30.55;18.10;;;;;;;6.82;100.00;99461.75;5050926;28;20441;-62
2023/05/14 02:27:57;;;;;;;26.35;18.52;;;;;;;6.77;100.00;99464.25;5065405;28;20045;-62
2023/05/14 02:30:25;;;;;;;25.63;18.35;;;;;;;6.77;100.00;99462.41;5057736;28;20048;-62
2023/05/14 02:32:52;;;;;;;29.20;19.02;;;;;;;6.76;100.00;99462.59;5060685;28;20040;-62
2023/05/14 02:35:21;;;;;;;28.45;18.05;;;;;;;6.70;100.00;99459.75;5054887;28;20064;-62
2023/05/14 02:37:48;;;;;;;23.20;17.20;;;;;;;6.65;100.00;99462.22;5042347;28;20059;-62
2023/05/14 02:40:15;;;;;;;23.50;15.40;;;;;;;6.46;100.00;99449.81;5061660;28;20044;-61
2023/05/14 02:42:42;;;;;;;22.35;14.52;;;;;;;6.44;100.00;99455.34;5061416;28;20059;-61
2023/05/14 02:45:10;;;;;;;18.02;13.05;;;;;;;6.54;100.00;99454.91;5052272;28;20127;-61
2023/05/14 02:47:38;;;;;;;20.00;14.13;;;;;;;6.61;100.00;99460.19;5059531;28;20049;-61
2023/05/14 02:50:06;;;;;;;19.08;13.50;;;;;;;6.36;100.00;99460.88;5057112;28;20044;-61
2023/05/14 02:52:33;;;;;;;25.73;17.95;;;;;;;6.19;100.00;99457.03;5058111;28;20055;-62
2023/05/14 02:55:00;;;;;;;30.63;20.63;;;;;;;6.15;100.00;99451.31;5060299;28;20475;-61
2023/05/14 02:57:27;;;;;;;37.25;24.10;;;;;;;6.33;100.00;99453.31;5059720;28;20052;-61
2023/05/14 02:59:54;;;;;;;47.42;28.00;;;;;;;6.63;100.00;99461.63;5055419;28;20096;-61
2023/05/14 03:02:21;;;;;;;57.63;33.70;;;;;;;6.97;100.00;99456.16;5056595;28;20130;-61
2023/05/14 03:04:50;;;;;;;52.63;30.23;;;;;;;7.03;100.00;99458.78;5059533;28;20139;-61
2023/05/14 03:07:17;;;;;;;55.50;32.10;;;;;;;6.89;100.00;99454.56;5053813;28;20040;-61
2023/05/14 03:09:44;;;;;;;44.92;26.80;;;;;;;6.63;100.00;99453.63;5065038;28;20130;-60
2023/05/14 03:12:11;;;;;;;34.38;22.38;;;;;;;6.39;100.00;99449.84;5060016;28;20533;-61
2023/05/14 03:14:38;;;;;;;28.98;20.17;;;;;;;6.27;100.00;99440.88;5064066;28;20094;-61
2023/05/14 03:17:05;;;;;;;28.65;19.73;;;;;;;6.10;100.00;99443.16;5058724;28;20044;-61
2023/05/14 03:19:32;;;;;;;27.63;18.50;;;;;;;6.16;100.00;99438.84;5056543;28;20045;-61
2023/05/14 03:22:01;;;;;;;24.65;16.23;;;;;;;6.09;100.00;99446.84;5050417;28;20076;-60
2023/05/14 03:24:28;;;;;;;19.77;14.00;;;;;;;6.00;100.00;99440.09;5051843;28;20523;-62
2023/05/14 03:26:55;;;;;;;22.67;15.02;;;;;;;5.91;100.00;99442.13;5059067;28;20051;-63
2023/05/14 03:29:22;;;;;;;28.88;16.25;;;;;;;6.02;100.00;99440.72;5059859;28;20040;-62
2023/05/14 03:31:49;;;;;;;22.83;15.93;;;;;;;6.01;100.00;99434.56;5057242;28;20899;-61
2023/05/14 03:34:16;;;;;;;23.42;16.75;;;;;;;5.91;100.00;99441.31;5060789;28;20120;-61
2023/05/14 03:36:43;;;;;;;28.40;17.25;;;;;;;5.99;100.00;99439.28;5061002;28;20052;-62
2023/05/14 03:39:14;;;;;;;29.70;17.90;;;;;;;6.16;100.00;99452.13;5058993;28;20041;-63
2023/05/14 03:41:44;;;;;;;27.75;18.23;;;;;;;6.29;100.00;99446.81;5057149;28;20056;-63
2023/05/14 03:44:11;;;;;;;30.77;20.55;;;;;;;6.32;100.00;99443.72;5060587;28;20041;-62
2023/05/14 03:46:38;;;;;;;32.83;20.38;;;;;;;6.19;100.00;99444.56;5062663;28;20048;-62
2023/05/14 03:49:07;;;;;;;27.25;17.90;;;;;;;6.33;100.00;99444.53;5064978;28;20079;-62
2023/05/14 03:51:34;;;;;;;28.02;19.85;;;;;;;6.16;100.00;99442.31;5077944;28;20135;-62
2023/05/14 03:54:01;;;;;;;29.58;20.05;;;;;;;6.26;100.00;99448.03;5062889;28;20047;-63
2023/05/14 03:56:29;;;;;;;34.42;22.48;;;;;;;6.18;100.00;99448.25;5061730;28;20044;-62
2023/05/14 03:58:56;;;;;;;29.52;19.13;;;;;;;6.13;100.00;99441.91;5058414;28;20131;-62
2023/05/14 04:01:23;;;;;;;29.17;20.13;;;;;;;6.14;100.00;99446.19;5065445;28;20556;-60
2023/05/14 04:03:50;;;;;;;28.30;19.55;;;;;;;6.04;100.00;99454.59;5062551;28;20667;-62
2023/05/14 04:06:17;;;;;;;27.15;19.25;;;;;;;6.11;100.00;99450.09;5062569;28;20044;-62
2023/05/14 04:08:44;;;;;;;26.75;18.42;;;;;;;6.37;100.00;99453.75;5058459;28;20122;-61
2023/05/14 04:11:11;;;;;;;27.20;19.52;;;;;;;6.39;100.00;99451.66;5054768;28;20430;-62
2023/05/14 04:13:42;;;;;;;23.20;16.17;;;;;;;6.30;100.00;99459.06;5064532;28;20068;-62
2023/05/14 04:16:10;;;;;;;18.55;12.68;;;;;;;6.03;100.00;99452.97;5057694;28;20102;-62
2023/05/14 04:18:37;;;;;;;16.00;12.15;;;;;;;6.05;100.00;99456.25;5057516;28;20052;-62
2023/05/14 04:21:05;;;;;;;19.10;13.60;;;;;;;6.03;100.00;99458.31;5058025;28;20044;-62
2023/05/14 04:23:32;;;;;;;24.38;15.77;;;;;;;6.22;100.00;99451.31;5066354;28;20040;-62
2023/05/14 04:25:59;;;;;;;26.52;15.85;;;;;;;6.45;100.00;99456.97;5057328;28;20045;-59
2023/05/14 04:28:26;;;;;;;68.22;20.48;;;;;;;6.34;100.00;99464.78;5055157;28;20041;-62
2023/05/14 04:30:55;;;;;;;47.25;19.45;;;;;;;6.35;100.00;99471.75;5061269;28;20157;-62
2023/05/14 04:33:22;;;;;;;48.63;18.52;;;;;;;6.45;100.00;99461.50;5053370;28;20124;-62
2023/05/14 04:35:49;;;;;;;98.63;19.20;;;;;;;6.44;100.00;99463.34;5060935;28;20387;-62
2023/05/14 04:38:16;;;;;;;219.43;22.70;;;;;;;6.65;100.00;99467.56;5062573;28;20044;-62
2023/05/14 04:40:43;;;;;;;214.93;23.23;;;;;;;6.67;100.00;99457.50;5062954;28;20124;-60
2023/05/14 04:43:10;;;;;;;117.90;21.75;;;;;;;6.77;100.00;99469.56;5062051;28;20029;-60
2023/05/14 04:45:37;;;;;;;181.70;23.08;;;;;;;6.76;100.00;99467.91;5060374;28;20052;-62
2023/05/14 04:48:06;;;;;;;161.68;22.20;;;;;;;6.86;100.00;99468.28;5060528;28;20041;-62
2023/05/14 04:50:33;;;;;;;140.60;24.17;;;;;;;6.99;100.00;99465.56;5063845;28;20040;-61
2023/05/14 04:53:00;;;;;;;108.85;23.13;;;;;;;7.07;100.00;99457.31;5066005;28;20398;-62
2023/05/14 04:55:28;;;;;;;162.80;24.20;;;;;;;7.17;100.00;99466.72;5056605;28;20063;-62
2023/05/14 04:57:54;;;;;;;110.18;21.35;;;;;;;7.32;100.00;99467.22;5061934;28;20486;-61
2023/05/14 05:00:22;;;;;;;58.90;20.42;;;;;;;7.41;100.00;99465.09;5060688;28;20473;-61
2023/05/14 05:02:49;;;;;;;96.15;20.75;;;;;;;7.39;100.00;99462.66;5054355;28;20171;-62
2023/05/14 05:05:17;;;;;;;109.97;19.70;;;;;;;7.32;100.00;99467.22;5062318;28;20396;-61
2023/05/14 05:07:44;;;;;;;121.15;20.50;;;;;;;7.35;100.00;99472.13;5062887;28;20110;-61
2023/05/14 05:10:11;;;;;;;125.70;21.02;;;;;;;7.50;100.00;99469.97;5063471;28;20036;-61
2023/05/14 05:12:38;;;;;;;82.07;19.42;;;;;;;7.56;100.00;99463.78;5064087;28;20098;-61
2023/05/14 05:15:06;;;;;;;64.97;19.55;;;;;;;7.74;100.00;99462.19;5063194;28;20049;-62
2023/05/14 05:17:33;;;;;;;92.45;21.38;;;;;;;7.75;100.00;99466.50;5056451;28;20095;-62
2023/05/14 05:20:00;;;;;;;75.80;19.08;;;;;;;7.62;100.00;99471.94;5057765;28;20041;-62
2023/05/14 05:22:28;;;;;;;92.80;18.17;;;;;;;7.56;100.00;99469.09;5057951;28;20133;-62
2023/05/14 05:24:55;;;;;;;141.18;19.50;;;;;;;7.43;100.00;99471.03;5056278;28;20053;-62
2023/05/14 05:27:22;;;;;;;126.55;18.98;;;;;;;7.52;100.00;99467.09;5061048;28;20073;-62
2023/05/14 05:29:49;;;;;;;53.85;17.17;;;;;;;7.55;100.00;99464.78;5065814;28;20049;-62
2023/05/14 05:32:16;;;;;;;56.15;17.08;;;;;;;7.65;100.00;99469.66;5053809;28;20043;-62
2023/05/14 05:34:43;;;;;;;66.35;17.35;;;;;;;7.70;100.00;99474.34;5054612;28;20132;-62
2023/05/14 05:37:12;;;;;;;68.60;16.75;;;;;;;7.83;100.00;99468.88;5060419;28;20054;-62
2023/05/14 05:39:41;;;;;;;67.20;16.33;;;;;;;7.97;100.00;99469.59;5060353;28;20045;-62
2023/05/14 05:42:08;;;;;;;102.10;16.95;;;;;;;8.07;100.00;99475.25;5055546;28;20044;-62
2023/05/14 05:44:35;;;;;;;108.25;17.50;;;;;;;8.02;100.00;99477.75;5060960;28;20514;-62
2023/05/14 05:47:02;;;;;;;69.47;16.77;;;;;;;8.17;100.00;99469.41;5062563;28;20036;-62
2023/05/14 05:49:29;;;;;;;78.57;17.95;;;;;;;7.99;100.00;99479.00;5060629;28;20127;-63
2023/05/14 05:51:56;;;;;;;100.95;16.77;;;;;;;8.23;100.00;99468.50;5064121;28;20497;-62
2023/05/14 05:54:23;;;;;;;89.60;17.80;;;;;;;8.39;100.00;99478.66;5063872;28;20045;-62
2023/05/14 05:56:52;;;;;;;75.20;16.42;;;;;;;8.41;100.00;99471.22;5061627;28;20135;-62
2023/05/14 05:59:19;;;;;;;36.47;18.27;;;;;;;8.75;100.00;99477.00;5059376;28;20048;-63
2023/05/14 06:01:48;;;;;;;41.83;18.08;;;;;;;8.68;100.00;99475.44;5061717;28;20597;-63
2023/05/14 06:04:16;;;;;;;39.90;15.93;;;;;;;9.35;100.00;99476.19;5064456;28;20049;-62
2023/05/14 06:06:43;;;;;;;37.17;15.75;;;;;;;9.22;100.00;99482.56;5056533;28;20102;-62
2023/05/14 06:09:09;;;;;;;36.63;15.70;;;;;;;10.20;100.00;99479.56;5062871;28;20144;-61
2023/05/14 06:11:37;;;;;;;44.90;13.55;;;;;;;10.10;100.00;99480.16;5054701;28;20044;-62
2023/05/14 06:14:05;;;;;;;70.45;13.90;;;;;;;9.37;100.00;99481.34;5063120;28;20048;-62
2023/05/14 06:16:32;;;;;;;29.90;12.43;;;;;;;9.58;100.00;99483.47;5056939;28;20580;-62
2023/05/14 06:18:59;;;;;;;45.08;13.77;;;;;;;9.26;100.00;99478.41;5058198;28;20751;-63
2023/05/14 06:21:26;;;;;;;33.45;14.77;;;;;;;9.39;100.00;99484.59;5061058;28;20055;-62
2023/05/14 06:23:53;;;;;;;67.15;14.18;;;;;;;9.31;100.00;99487.56;5060252;28;20048;-62
2023/05/14 06:26:20;;;;;;;44.22;14.20;;;;;;;9.23;100.00;99486.03;5057475;28;20366;-62
2023/05/14 06:28:47;;;;;;;29.05;14.75;;;;;;;9.38;100.00;99489.09;5057699;28;20053;-62
2023/05/14 06:31:16;;;;;;;58.25;15.30;;;;;;;9.53;100.00;99488.69;5060638;28;20167;-62
2023/05/14 06:33:43;;;;;;;32.00;14.40;;;;;;;10.31;100.00;99486.84;5057918;28;20040;-62
2023/05/14 06:36:10;;;;;;;46.90;16.27;;;;;;;10.66;100.00;99494.81;5063373;28;20036;-62
2023/05/14 06:38:37;;;;;;;41.13;15.20;;;;;;;10.41;100.00;99496.94;5062672;28;20068;-62
2023/05/14 06:41:04;;;;;;;52.72;15.63;;;;;;;10.25;100.00;99507.28;5061355;28;20037;-62
2023/05/14 06:43:31;;;;;;;22.88;15.63;;;;;;;10.31;100.00;99500.22;5060152;28;20459;-62
2023/05/14 06:45:59;;;;;;;25.65;15.27;;;;;;;10.53;100.00;99501.25;5063372;28;20048;-62
2023/05/14 06:48:28;;;;;;;41.05;15.20;;;;;;;10.79;100.00;99493.72;5056882;28;20131;-62
2023/05/14 06:50:55;;;;;;;46.25;15.63;;;;;;;10.89;100.00;99501.16;5057713;28;20052;-62
2023/05/14 06:53:22;;;;;;;45.83;15.60;;;;;;;10.72;100.00;99498.41;5060537;28;20041;-62
2023/05/14 06:55:49;;;;;;;26.63;15.35;;;;;;;11.09;100.00;99495.38;5056702;28;20469;-62
2023/05/14 06:58:16;;;;;;;46.17;16.05;;;;;;;11.11;100.00;99482.56;5064646;28;20060;-62
2023/05/14 07:00:43;;;;;;;28.45;15.55;;;;;;;11.45;100.00;99483.41;5062262;28;20044;-62
2023/05/14 07:03:10;;;;;;;32.20;18.10;;;;;;;12.02;100.00;99487.88;5061844;28;20043;-62
2023/05/14 07:05:40;;;;;;;27.35;15.20;;;;;;;13.05;100.00;99485.47;5059199;28;20075;-62
2023/05/14 07:08:07;;;;;;;25.52;14.68;;;;;;;14.79;89.87;99481.44;5064931;28;20040;-62
2023/05/14 07:10:34;;;;;;;20.25;14.40;;;;;;;13.65;90.54;99488.22;5061201;28;20591;-61
2023/05/14 07:13:02;;;;;;;24.88;15.45;;;;;;;14.29;90.81;99488.19;5062855;28;20048;-62
2023/05/14 07:15:29;;;;;;;20.60;14.02;;;;;;;16.03;79.40;99486.00;5060021;28;20033;-62
2023/05/14 07:17:56;;;;;;;20.80;12.57;;;;;;;16.01;76.67;99488.16;5062602;28;20048;-62
2023/05/14 07:20:23;;;;;;;16.88;12.93;;;;;;;17.37;75.15;99481.72;5066747;28;20059;-62
2023/05/14 07:22:52;;;;;;;16.38;11.55;;;;;;;20.27;63.52;99483.13;5061803;28;20036;-62
2023/05/14 07:25:19;;;;;;;18.25;11.85;;;;;;;18.76;68.43;99478.59;5068345;28;20526;-62
2023/05/14 07:27:46;;;;;;;14.57;10.77;;;;;;;19.47;65.25;99482.25;5058664;28;20059;-62
2023/05/14 07:30:13;;;;;;;14.55;10.45;;;;;;;20.95;61.37;99488.91;5065473;28;20508;-62
2023/05/14 07:32:40;;;;;;;15.25;11.15;;;;;;;19.36;66.94;99488.91;5057892;28;20128;-62
2023/05/14 07:35:08;;;;;;;15.18;10.57;;;;;;;17.81;74.40;99478.16;5066335;28;20478;-62
2023/05/14 07:37:35;;;;;;;15.57;11.52;;;;;;;16.86;78.08;99482.00;5065926;28;20051;-62
2023/05/14 07:40:04;;;;;;;16.20;12.13;;;;;;;16.37;81.66;99483.50;5064921;28;20045;-62
2023/05/14 07:42:31;;;;;;;15.90;13.55;;;;;;;15.80;85.78;99479.25;5061946;28;20147;-62
2023/05/14 07:44:58;;;;;;;15.23;12.82;;;;;;;15.92;83.55;99484.38;5063036;28;20033;-62
2023/05/14 07:47:25;;;;;;;15.60;12.90;;;;;;;16.12;82.25;99478.94;5064331;28;20261;-63
2023/05/14 07:49:54;;;;;;;16.50;13.75;;;;;;;17.91;74.78;99476.47;5062196;28;20054;-63
2023/05/14 07:52:21;;;;;;;18.13;13.50;;;;;;;16.71;77.88;99479.34;5057802;28;20471;-63
2023/05/14 07:54:48;;;;;;;21.25;13.00;;;;;;;16.57;79.66;99471.81;5067032;28;20069;-63
2023/05/14 07:57:17;;;;;;;17.73;13.25;;;;;;;16.53;79.52;99468.03;5062616;28;20305;-63
2023/05/14 07:59:43;;;;;;;17.73;13.52;;;;;;;18.06;74.42;99460.06;5062724;28;20064;-63
2023/05/14 08:02:11;;;;;;;18.05;13.57;;;;;;;18.24;73.60;99466.66;5062087;28;20090;-62
2023/05/14 08:04:38;;;;;;;14.82;12.27;;;;;;;18.82;71.58;99469.28;5062746;28;20430;-63
2023/05/14 08:07:06;;;;;;;15.45;12.48;;;;;;;18.93;70.85;99464.53;5067217;28;20406;-62
2023/05/14 08:09:34;;;;;;;16.75;12.95;;;;;;;19.41;69.94;99464.38;5057971;28;20135;-61
2023/05/14 08:12:01;;;;;;;14.98;12.05;;;;;;;20.51;67.35;99469.31;5062390;28;20032;-61
2023/05/14 08:14:29;;;;;;;16.65;12.63;;;;;;;20.12;65.93;99472.47;5059355;28;20041;-61
2023/05/14 08:16:56;;;;;;;14.70;11.80;;;;;;;20.66;66.59;99468.22;5056294;28;20503;-63
2023/05/14 08:19:23;;;;;;;15.25;11.57;;;;;;;20.77;65.67;99466.91;5055755;28;20040;-63
2023/05/14 08:21:50;;;;;;;15.35;11.23;;;;;;;18.68;72.61;99468.34;5060878;28;20469;-64
2023/05/14 08:24:18;;;;;;;16.83;12.23;;;;;;;18.24;75.14;99464.75;5063458;28;20055;-62
2023/05/14 08:26:45;;;;;;;16.98;12.43;;;;;;;17.63;77.10;99473.41;5059627;28;20500;-62
2023/05/14 08:29:12;;;;;;;17.23;12.40;;;;;;;17.58;78.12;99465.31;5055043;28;20056;-62
2023/05/14 08:31:41;;;;;;;14.52;11.27;;;;;;;17.46;79.78;99463.78;5058408;28;20071;-61
2023/05/14 08:34:08;;;;;;;14.32;11.57;;;;;;;18.11;76.29;99460.00;5056572;28;20037;-62
2023/05/14 08:36:35;;;;;;;16.27;11.07;;;;;;;18.40;72.74;99457.25;5058820;28;20045;-64
2023/05/14 08:39:02;;;;;;;13.57;10.27;;;;;;;18.28;73.04;99463.09;5064169;28;20052;-61
2023/05/14 08:41:29;;;;;;;13.95;11.02;;;;;;;18.42;73.56;99456.97;5057015;28;20135;-61
2023/05/14 08:43:59;;;;;;;14.98;11.02;;;;;;;18.50;75.12;99456.34;5058543;28;20090;-62
2023/05/14 08:46:25;;;;;;;;;;;;;;;19.54;70.67;99451.94;5063526;28;20124;-61
2023/05/14 08:48:56;;;;;;;11.90;9.05;;;;;;;19.86;68.43;99456.63;5063859;28;19946;-62
2023/05/14 08:51:23;;;;;;;10.98;8.35;;;;;;;20.13;67.05;99463.22;5062364;28;20087;-62
2023/05/14 08:53:50;;;;;;;13.43;9.13;;;;;;;20.64;62.58;99459.53;5063129;28;20072;-62
2023/05/14 08:56:18;;;;;;;12.88;9.48;;;;;;;20.92;62.65;99456.78;5058362;28;20063;-63
2023/05/14 08:58:45;;;;;;;19.63;9.35;;;;;;;20.48;64.57;99446.22;5064729;28;20064;-63
2023/05/14 09:01:11;;;;;;;11.63;9.10;;;;;;;19.99;67.21;99447.69;5067652;28;20045;-62
2023/05/14 09:03:38;;;;;;;10.75;8.32;;;;;;;19.40;69.25;99438.31;5060443;28;20406;-63
2023/05/14 09:06:09;;;;;;;11.30;8.27;;;;;;;20.22;66.28;99439.66;5054308;28;20043;-63
2023/05/14 09:08:37;;;;;;;10.00;7.80;;;;;;;20.62;63.63;99442.72;5059705;28;20135;-62
2023/05/14 09:11:04;;;;;;;9.95;7.78;;;;;;;19.59;67.96;99439.09;5060689;28;20044;-63
2023/05/14 09:13:31;;;;;;;9.23;8.23;;;;;;;20.35;67.05;99443.50;5063227;28;20484;-63
2023/05/14 09:15:58;;;;;;;11.43;7.80;;;;;;;19.91;67.73;99439.41;5055923;28;20036;-63
2023/05/14 09:18:25;;;;;;;8.30;6.78;;;;;;;19.24;64.39;99437.72;5059181;28;20398;-63
2023/05/14 09:20:52;;;;;;;8.73;7.60;;;;;;;18.97;68.15;99430.25;5053683;28;20044;-63
2023/05/14 09:23:20;;;;;;;11.32;8.35;;;;;;;20.29;63.65;99431.09;5064444;28;20036;-62
2023/05/14 09:25:48;;;;;;;9.15;6.95;;;;;;;19.67;66.80;99439.50;5058415;28;20057;-63
2023/05/14 09:28:17;;;;;;;11.75;7.60;;;;;;;19.52;66.84;99433.22;5062585;28;20045;-63
2023/05/14 09:30:47;;;;;;;21.02;7.97;;;;;;;19.71;65.59;99435.13;5058571;28;20052;-62
2023/05/14 09:33:15;;;;;;;11.80;8.00;;;;;;;19.33;65.71;99435.97;5059177;28;20051;-63
2023/05/14 09:35:42;;;;;;;13.05;7.82;;;;;;;19.44;66.12;99428.44;5056503;28;20055;-63
2023/05/14 09:38:09;;;;;;;9.65;7.00;;;;;;;19.28;66.83;99427.88;5058016;28;20435;-62
2023/05/14 09:40:37;;;;;;;9.43;7.15;;;;;;;18.31;68.50;99427.22;5056875;28;20045;-63
2023/05/14 09:43:04;;;;;;;9.13;6.70;;;;;;;20.47;64.27;99431.00;5065120;28;20562;-62
2023/05/14 09:45:31;;;;;;;10.90;6.43;;;;;;;20.46;61.91;99418.47;5057739;28;20398;-63
2023/05/14 09:47:59;;;;;;;7.97;6.28;;;;;;;21.40;59.97;99423.59;5063370;28;20405;-63
2023/05/14 09:50:27;;;;;;;8.15;6.38;;;;;;;20.74;61.32;99421.19;5061298;28;20048;-63
2023/05/14 09:52:55;;;;;;;7.40;6.07;;;;;;;21.96;57.09;99413.97;5058547;28;20068;-62
2023/05/14 09:55:22;;;;;;;7.53;5.68;;;;;;;22.23;54.46;99412.22;5060917;28;20396;-62
2023/05/14 09:57:50;;;;;;;7.28;5.85;;;;;;;22.01;57.04;99411.09;5061674;28;20148;-62
2023/05/14 10:00:18;;;;;;;8.10;5.90;;;;;;;20.40;59.26;99403.38;5057458;28;20083;-62
2023/05/14 10:02:48;;;;;;;6.47;5.65;;;;;;;21.30;58.88;99409.06;5053628;28;20049;-62
2023/05/14 10:05:16;;;;;;;6.70;4.97;;;;;;;21.29;57.27;99402.00;5058338;28;20124;-62
2023/05/14 10:07:45;;;;;;;7.68;5.25;;;;;;;20.13;57.35;99414.25;5059412;28;20068;-62
2023/05/14 10:10:15;;;;;;;7.22;4.68;;;;;;;21.06;54.43;99408.53;5058334;28;20086;-63
2023/05/14 10:12:43;;;;;;;7.88;4.80;;;;;;;19.94;60.41;99417.84;5054307;28;20086;-62
2023/05/14 10:15:17;;;;;;;7.07;4.40;;;;;;;20.00;54.36;99411.22;5065442;28;20036;-62
2023/05/14 10:17:44;;;;;;;5.25;4.25;;;;;;;19.78;55.43;99419.22;5058348;28;20135;-62
2023/05/14 10:20:11;;;;;;;5.70;4.43;;;;;;;20.33;54.06;99402.16;5054424;28;20136;-62
2023/05/14 10:22:38;;;;;;;6.60;4.50;;;;;;;19.92;55.61;99401.03;5055072;28;20048;-62
2023/05/14 10:25:07;;;;;;;5.40;4.18;;;;;;;20.72;55.50;99393.50;5060736;28;20072;-62
2023/05/14 10:27:36;;;;;;;7.28;4.15;;;;;;;21.45;53.62;99394.28;5056481;28;20052;-63
2023/05/14 10:30:06;;;;;;;5.95;4.05;;;;;;;21.63;54.94;99381.53;5059754;28;20047;-62
2023/05/14 10:32:36;;;;;;;5.32;4.00;;;;;;;21.34;52.19;99390.13;5051474;28;20033;-62
2023/05/14 10:35:15;;;;;;;4.50;3.50;;;;;;;21.09;53.57;99386.09;5057653;28;20090;-62
2023/05/14 10:37:42;;;;;;;5.65;4.07;;;;;;;19.44;55.83;99384.97;5057397;28;20051;-62
2023/05/14 10:40:09;;;;;;;5.30;4.10;;;;;;;19.75;55.80;99385.28;5058141;28;20040;-62
2023/05/14 10:42:39;;;;;;;5.10;4.20;;;;;;;20.12;55.10;99377.25;5055120;28;20041;-62
2023/05/14 10:45:07;;;;;;;5.82;3.90;;;;;;;21.75;51.42;99375.53;5059490;28;20068;-62
2023/05/14 10:47:38;;;;;;;5.78;4.57;;;;;;;19.26;55.80;99372.22;5056272;28;20044;-62
2023/05/14 10:50:06;;;;;;;5.35;4.03;;;;;;;18.28;59.01;99376.25;5060761;28;20278;-62
2023/05/14 10:52:33;;;;;;;4.80;3.80;;;;;;;18.84;58.90;99366.59;5057460;28;20040;-62
2023/05/14 10:55:01;;;;;;;6.57;4.30;;;;;;;17.95;62.67;99360.94;5062055;28;20119;-61
2023/05/14 10:57:29;;;;;;;7.15;4.20;;;;;;;18.43;59.97;99364.41;5065165;28;20114;-61
2023/05/14 10:59:57;;;;;;;6.78;4.10;;;;;;;19.06;60.39;99360.56;5063854;28;20150;-61
2023/05/14 11:02:25;;;;;;;6.38;4.40;;;;;;;19.02;58.69;99356.84;5057581;28;20048;-62
2023/05/14 11:04:57;;;;;;;6.05;4.30;;;;;;;20.20;56.90;99355.59;5038097;28;20115;-62
2023/05/14 11:07:27;;;;;;;4.88;3.80;;;;;;;20.80;53.88;99351.91;5054832;28;20041;-61
2023/05/14 11:10:00;;;;;;;6.35;3.67;;;;;;;20.31;55.40;99356.19;5059830;28;20396;-62
2023/05/14 11:12:27;;;;;;;4.80;3.63;;;;;;;20.75;53.59;99353.94;5058114;28;20076;-62
2023/05/14 11:14:54;;;;;;;7.85;4.03;;;;;;;20.47;53.39;99346.59;5059195;28;20415;-61
2023/05/14 11:17:21;;;;;;;4.68;3.65;;;;;;;21.77;51.31;99343.28;5065218;28;20045;-61
2023/05/14 11:19:48;;;;;;;6.45;4.18;;;;;;;20.13;53.45;99338.06;5057767;28;20072;-62
2023/05/14 11:22:17;;;;;;;5.30;4.10;;;;;;;19.12;58.93;99340.38;5063974;28;20040;-60